createdAt,value
2019-02-24T00:01:06.661Z,21.03
2019-02-24T00:03:33.326Z,21.15
2019-02-24T00:05:59.978Z,21.24
2019-02-24T00:08:26.666Z,21.31
2019-02-24T00:10:53.336Z,21.37
2019-02-24T00:13:20.024Z,21.40
2019-02-24T00:15:46.687Z,21.44
2019-02-24T00:18:13.340Z,21.49
2019-02-24T00:20:40.036Z,21.50
2019-02-24T00:23:06.714Z,21.50
2019-02-24T00:25:33.450Z,21.49
2019-02-24T00:28:06.899Z,21.51
2019-02-24T00:30:26.759Z,21.52
2019-02-24T00:32:53.430Z,21.52
2019-02-24T00:35:20.204Z,21.53
2019-02-24T00:37:46.867Z,21.54
2019-02-24T00:40:13.530Z,21.54
2019-02-24T00:42:40.187Z,21.54
2019-02-24T00:45:06.865Z,21.56
2019-02-24T00:47:33.523Z,21.60
2019-02-24T00:50:00.299Z,21.58
2019-02-24T00:52:26.844Z,21.59
2019-02-24T00:54:53.523Z,21.58
2019-02-24T00:57:20.170Z,21.61
2019-02-24T00:59:46.865Z,21.62
2019-02-24T01:02:13.529Z,21.57
2019-02-24T01:04:40.167Z,21.59
2019-02-24T01:07:06.867Z,21.62
2019-02-24T01:09:33.575Z,21.60
2019-02-24T01:12:00.206Z,21.61
2019-02-24T01:14:26.896Z,21.59
2019-02-24T01:16:53.586Z,21.58
2019-02-24T01:19:20.262Z,21.63
2019-02-24T01:21:47.017Z,21.60
2019-02-24T01:24:13.675Z,21.59
2019-02-24T01:26:40.332Z,21.59
2019-02-24T01:29:06.971Z,21.58
2019-02-24T01:31:33.649Z,21.58
2019-02-24T01:34:00.388Z,21.54
2019-02-24T01:36:27.054Z,21.44
2019-02-24T01:38:53.726Z,21.20
2019-02-24T01:41:20.370Z,21.14
2019-02-24T01:43:47.039Z,21.19
2019-02-24T01:46:13.783Z,21.25
2019-02-24T01:48:40.454Z,21.32
2019-02-24T01:51:07.203Z,21.32
2019-02-24T01:53:33.857Z,21.33
2019-02-24T01:56:00.521Z,21.33
2019-02-24T01:58:34.982Z,21.37
2019-02-24T02:00:53.885Z,21.37
2019-02-24T02:03:20.525Z,21.38
2019-02-24T02:05:47.194Z,21.38
2019-02-24T02:08:16.976Z,21.39
2019-02-24T02:10:43.643Z,21.42
2019-02-24T02:13:10.291Z,21.40
2019-02-24T02:15:36.963Z,21.41
2019-02-24T02:18:03.625Z,21.43
2019-02-24T02:20:30.322Z,21.43
2019-02-24T02:22:56.965Z,21.42
2019-02-24T02:25:23.622Z,21.41
2019-02-24T02:27:50.382Z,21.42
2019-02-24T02:30:17.089Z,21.40
2019-02-24T02:32:43.787Z,21.41
2019-02-24T02:35:10.450Z,21.41
2019-02-24T02:37:37.076Z,21.42
2019-02-24T02:40:03.742Z,21.41
2019-02-24T02:42:30.379Z,21.41
2019-02-24T02:44:57.036Z,21.41
2019-02-24T02:47:23.682Z,21.45
2019-02-24T02:49:50.354Z,21.41
2019-02-24T02:52:17.141Z,21.45
2019-02-24T02:54:43.977Z,21.38
2019-02-24T02:57:10.634Z,21.38
2019-02-24T02:59:37.292Z,21.39
2019-02-24T03:02:03.952Z,21.39
2019-02-24T03:04:30.615Z,21.43
2019-02-24T03:06:57.265Z,21.44
2019-02-24T03:09:23.971Z,21.43
2019-02-24T03:11:50.686Z,21.41
2019-02-24T03:14:17.337Z,21.42
2019-02-24T03:16:44.038Z,21.41
2019-02-24T03:19:10.717Z,21.35
2019-02-24T03:21:37.372Z,21.17
2019-02-24T03:24:04.028Z,20.98
2019-02-24T03:26:31.908Z,21.04
2019-02-24T03:29:03.860Z,21.10
2019-02-24T03:31:24.117Z,21.14
2019-02-24T03:33:50.759Z,21.17
2019-02-24T03:36:17.417Z,21.18
2019-02-24T03:38:44.128Z,21.23
2019-02-24T03:41:10.782Z,21.25
2019-02-24T03:43:37.440Z,21.23
2019-02-24T03:46:04.103Z,21.25
2019-02-24T03:48:30.815Z,21.25
2019-02-24T03:50:57.511Z,21.26
2019-02-24T03:53:24.190Z,21.25
2019-02-24T03:55:50.850Z,21.26
2019-02-24T03:58:17.485Z,21.27
2019-02-24T04:00:44.176Z,21.30
2019-02-24T04:03:10.819Z,21.28
2019-02-24T04:05:37.506Z,21.31
2019-02-24T04:08:04.159Z,21.32
2019-02-24T04:10:30.810Z,21.31
2019-02-24T04:12:57.471Z,21.31
2019-02-24T04:15:24.135Z,21.33
2019-02-24T04:17:50.798Z,21.30
2019-02-24T04:20:17.442Z,21.34
2019-02-24T04:22:44.093Z,21.34
2019-02-24T04:25:10.745Z,21.36
2019-02-24T04:27:37.446Z,21.35
2019-02-24T04:30:04.117Z,21.37
2019-02-24T04:32:30.772Z,21.38
2019-02-24T04:34:57.505Z,21.37
2019-02-24T04:37:24.158Z,21.34
2019-02-24T04:39:53.379Z,21.35
2019-02-24T04:42:20.037Z,21.38
2019-02-24T04:44:46.703Z,21.39
2019-02-24T04:47:13.405Z,21.39
2019-02-24T04:49:40.129Z,21.38
2019-02-24T04:52:06.774Z,21.38
2019-02-24T04:54:33.461Z,21.36
2019-02-24T04:57:00.073Z,21.40
2019-02-24T04:59:34.749Z,21.40
2019-02-24T05:01:53.443Z,21.35
2019-02-24T05:04:20.111Z,21.22
2019-02-24T05:06:46.770Z,21.05
2019-02-24T05:09:13.419Z,21.01
2019-02-24T05:11:40.148Z,21.06
2019-02-24T05:14:06.842Z,21.09
2019-02-24T05:16:33.483Z,21.13
2019-02-24T05:19:00.161Z,21.13
2019-02-24T05:21:26.810Z,21.15
2019-02-24T05:23:53.465Z,21.19
2019-02-24T05:26:20.117Z,21.22
2019-02-24T05:28:46.795Z,21.23
2019-02-24T05:31:13.526Z,21.27
2019-02-24T05:33:41.549Z,21.26
2019-02-24T05:36:06.861Z,21.30
2019-02-24T05:38:33.519Z,21.33
2019-02-24T05:41:00.192Z,21.33
2019-02-24T05:43:26.851Z,21.33
2019-02-24T05:45:53.533Z,21.37
2019-02-24T05:48:20.229Z,21.45
2019-02-24T05:50:47.060Z,21.53
2019-02-24T05:53:13.688Z,21.88
2019-02-24T05:55:40.484Z,22.46
2019-02-24T05:58:07.136Z,22.68
2019-02-24T06:00:33.781Z,22.90
2019-02-24T06:03:00.459Z,23.06
2019-02-24T06:05:27.103Z,23.22
2019-02-24T06:07:53.805Z,22.54
2019-02-24T06:10:20.441Z,22.41
2019-02-24T06:12:47.143Z,22.48
2019-02-24T06:15:13.888Z,22.52
2019-02-24T06:17:40.527Z,22.57
2019-02-24T06:20:07.233Z,22.59
2019-02-24T06:22:33.878Z,22.69
2019-02-24T06:25:00.524Z,22.77
2019-02-24T06:27:27.297Z,22.80
2019-02-24T06:29:53.942Z,22.74
2019-02-24T06:32:20.598Z,22.47
2019-02-24T06:34:47.262Z,22.43
2019-02-24T06:37:13.990Z,22.53
2019-02-24T06:39:40.652Z,22.66
2019-02-24T06:42:07.305Z,22.75
2019-02-24T06:44:33.961Z,22.84
2019-02-24T06:47:00.658Z,22.88
2019-02-24T06:49:27.323Z,22.91
2019-02-24T06:51:53.991Z,23.00
2019-02-24T06:54:20.645Z,23.04
2019-02-24T06:56:47.288Z,23.07
2019-02-24T06:59:13.951Z,23.05
2019-02-24T07:01:40.607Z,23.04
2019-02-24T07:04:07.291Z,22.99
2019-02-24T07:06:33.966Z,22.95
2019-02-24T07:09:01.252Z,22.98
2019-02-24T07:11:27.301Z,23.03
2019-02-24T07:13:53.965Z,23.05
2019-02-24T07:16:20.620Z,23.06
2019-02-24T07:18:47.286Z,23.06
2019-02-24T07:21:13.952Z,23.04
2019-02-24T07:23:40.627Z,23.04
2019-02-24T07:26:07.274Z,23.08
2019-02-24T07:28:33.934Z,23.09
2019-02-24T07:31:00.595Z,23.09
2019-02-24T07:33:27.276Z,23.06
2019-02-24T07:35:53.922Z,22.92
2019-02-24T07:38:20.584Z,22.75
2019-02-24T07:40:47.222Z,22.83
2019-02-24T07:43:13.927Z,22.94
2019-02-24T07:45:40.580Z,23.01
2019-02-24T07:48:07.234Z,23.09
2019-02-24T07:50:33.910Z,23.11
2019-02-24T07:53:00.542Z,23.17
2019-02-24T07:55:27.210Z,23.25
2019-02-24T07:57:53.866Z,23.23
2019-02-24T08:00:20.506Z,23.17
2019-02-24T08:02:47.183Z,23.10
2019-02-24T08:05:13.829Z,23.02
2019-02-24T08:07:40.490Z,22.77
2019-02-24T08:10:07.174Z,22.44
2019-02-24T08:12:33.835Z,22.35
2019-02-24T08:15:00.485Z,22.42
2019-02-24T08:17:27.130Z,22.65
2019-02-24T08:19:53.803Z,22.78
2019-02-24T08:22:20.462Z,22.88
2019-02-24T08:24:47.206Z,22.95
2019-02-24T08:27:13.871Z,22.99
2019-02-24T08:29:40.537Z,23.04
2019-02-24T08:32:07.190Z,23.08
2019-02-24T08:34:33.852Z,23.09
2019-02-24T08:37:00.499Z,23.09
2019-02-24T08:39:27.161Z,23.08
2019-02-24T08:41:53.806Z,23.13
2019-02-24T08:44:22.310Z,23.11
2019-02-24T08:46:47.113Z,23.10
2019-02-24T08:49:13.762Z,23.10
2019-02-24T08:51:40.439Z,22.97
2019-02-24T08:54:07.100Z,22.82
2019-02-24T08:56:33.944Z,22.83
2019-02-24T08:59:00.581Z,22.93
2019-02-24T09:01:27.283Z,22.95
2019-02-24T09:03:53.925Z,22.98
2019-02-24T09:06:20.790Z,23.01
2019-02-24T09:08:47.419Z,23.03
2019-02-24T09:11:14.074Z,23.07
2019-02-24T09:13:40.734Z,23.08
2019-02-24T09:16:07.390Z,23.08
2019-02-24T09:18:34.080Z,23.09
2019-02-24T09:21:00.752Z,23.08
2019-02-24T09:23:27.403Z,23.09
2019-02-24T09:25:54.066Z,23.12
2019-02-24T09:28:20.713Z,23.08
2019-02-24T09:30:47.415Z,23.09
2019-02-24T09:33:14.075Z,23.06
2019-02-24T09:35:40.761Z,22.97
2019-02-24T09:38:07.422Z,22.84
2019-02-24T09:40:34.117Z,22.77
2019-02-24T09:43:01.795Z,22.85
2019-02-24T09:45:27.471Z,22.89
2019-02-24T09:47:54.135Z,22.95
2019-02-24T09:50:20.786Z,22.98
2019-02-24T09:52:47.483Z,23.00
2019-02-24T09:55:14.133Z,23.05
2019-02-24T09:57:40.831Z,23.04
2019-02-24T10:00:07.477Z,23.05
2019-02-24T10:02:34.189Z,23.10
2019-02-24T10:05:00.842Z,23.10
2019-02-24T10:07:27.499Z,23.09
2019-02-24T10:09:54.153Z,23.06
2019-02-24T10:12:20.805Z,23.06
2019-02-24T10:14:47.482Z,23.06
2019-02-24T10:17:14.120Z,23.03
2019-02-24T10:19:40.778Z,23.03
2019-02-24T10:22:07.419Z,22.95
2019-02-24T10:24:34.082Z,22.82
2019-02-24T10:27:00.756Z,22.79
2019-02-24T10:29:27.402Z,22.86
2019-02-24T10:31:54.065Z,22.86
2019-02-24T10:34:20.722Z,22.94
2019-02-24T10:36:47.372Z,22.96
2019-02-24T10:39:14.087Z,22.99
2019-02-24T10:41:40.732Z,23.03
2019-02-24T10:44:07.387Z,23.04
2019-02-24T10:46:34.101Z,23.07
2019-02-24T10:49:03.322Z,23.12
2019-02-24T10:51:27.575Z,23.13
2019-02-24T10:53:54.331Z,23.11
2019-02-24T10:56:21.008Z,23.13
2019-02-24T10:58:47.703Z,23.11
2019-02-24T11:01:14.359Z,23.09
2019-02-24T11:03:41.017Z,23.12
2019-02-24T11:06:07.674Z,23.12
2019-02-24T11:08:34.371Z,23.09
2019-02-24T11:11:01.027Z,23.12
2019-02-24T11:13:27.709Z,23.11
2019-02-24T11:15:54.370Z,23.12
2019-02-24T11:18:21.061Z,23.14
2019-02-24T11:20:47.761Z,23.14
2019-02-24T11:23:14.410Z,23.13
2019-02-24T11:25:41.092Z,23.07
2019-02-24T11:28:07.773Z,22.94
2019-02-24T11:30:34.527Z,22.88
2019-02-24T11:33:01.192Z,22.98
2019-02-24T11:35:27.890Z,23.00
2019-02-24T11:37:54.550Z,23.04
2019-02-24T11:40:21.268Z,23.09
2019-02-24T11:42:47.919Z,23.15
2019-02-24T11:45:14.585Z,23.15
2019-02-24T11:47:41.307Z,23.21
2019-02-24T11:50:08.063Z,23.18
2019-02-24T11:52:34.788Z,23.19
2019-02-24T11:55:01.454Z,23.25
2019-02-24T11:57:28.128Z,23.23
2019-02-24T11:59:54.788Z,23.23
2019-02-24T12:02:21.458Z,23.27
2019-02-24T12:04:48.108Z,23.28
2019-02-24T12:07:14.802Z,23.29
2019-02-24T12:09:41.454Z,23.25
2019-02-24T12:12:08.114Z,23.30
2019-02-24T12:14:34.774Z,23.26
2019-02-24T12:17:01.440Z,23.28
2019-02-24T12:19:28.104Z,23.30
2019-02-24T12:21:54.766Z,23.29
2019-02-24T12:24:21.428Z,23.26
2019-02-24T12:26:48.128Z,23.29
2019-02-24T12:29:14.751Z,23.29
2019-02-24T12:31:41.469Z,23.26
2019-02-24T12:34:08.115Z,23.28
2019-02-24T12:36:34.818Z,23.27
2019-02-24T12:39:01.520Z,23.25
2019-02-24T12:41:28.174Z,23.19
2019-02-24T12:43:54.840Z,23.02
2019-02-24T12:46:21.509Z,22.94
2019-02-24T12:48:48.259Z,23.03
2019-02-24T12:51:14.989Z,23.07
2019-02-24T12:53:41.667Z,23.10
2019-02-24T12:56:08.319Z,23.15
2019-02-24T12:58:34.990Z,23.16
2019-02-24T13:01:01.655Z,23.20
2019-02-24T13:03:28.317Z,23.20
2019-02-24T13:05:55.001Z,23.26
2019-02-24T13:08:21.653Z,23.26
2019-02-24T13:10:48.350Z,23.26
2019-02-24T13:13:14.987Z,23.24
2019-02-24T13:15:41.820Z,23.25
2019-02-24T13:18:08.478Z,23.25
2019-02-24T13:20:35.143Z,23.21
2019-02-24T13:23:01.790Z,23.20
2019-02-24T13:25:28.464Z,23.17
2019-02-24T13:27:55.151Z,23.15
2019-02-24T13:30:21.801Z,23.14
2019-02-24T13:32:48.447Z,23.13
2019-02-24T13:35:15.194Z,23.13
2019-02-24T13:37:41.892Z,23.13
2019-02-24T13:40:08.543Z,23.13
2019-02-24T13:42:35.236Z,23.14
2019-02-24T13:45:01.886Z,23.13
2019-02-24T13:47:28.586Z,23.14
2019-02-24T13:49:55.233Z,23.10
2019-02-24T13:52:21.945Z,23.09
2019-02-24T13:54:48.596Z,23.09
2019-02-24T13:57:15.491Z,23.06
2019-02-24T13:59:42.156Z,23.01
2019-02-24T14:02:08.807Z,22.81
2019-02-24T14:04:35.482Z,22.80
2019-02-24T14:07:02.153Z,22.85
2019-02-24T14:09:28.876Z,22.84
2019-02-24T14:11:55.510Z,22.84
2019-02-24T14:14:22.167Z,22.90
2019-02-24T14:16:48.829Z,22.90
2019-02-24T14:19:15.521Z,22.93
2019-02-24T14:21:42.218Z,22.93
2019-02-24T14:24:08.922Z,22.95
2019-02-24T14:26:35.594Z,22.96
2019-02-24T14:29:02.252Z,22.97
2019-02-24T14:31:28.903Z,22.97
2019-02-24T14:33:55.601Z,22.95
2019-02-24T14:36:22.257Z,22.95
2019-02-24T14:38:48.935Z,22.93
2019-02-24T14:41:15.581Z,22.94
2019-02-24T14:43:42.264Z,22.89
2019-02-24T14:46:08.930Z,22.80
2019-02-24T14:48:35.607Z,22.61
2019-02-24T14:51:02.276Z,22.58
2019-02-24T14:53:28.930Z,22.63
2019-02-24T14:55:55.613Z,22.68
2019-02-24T14:58:22.279Z,22.69
2019-02-24T15:00:48.978Z,22.71
2019-02-24T15:03:15.620Z,22.71
2019-02-24T15:05:42.310Z,22.73
2019-02-24T15:08:08.968Z,22.78
2019-02-24T15:10:35.676Z,22.75
2019-02-24T15:13:02.321Z,22.74
2019-02-24T15:15:33.183Z,22.75
2019-02-24T15:17:56.793Z,22.78
2019-02-24T15:20:22.428Z,22.79
2019-02-24T15:22:49.075Z,22.79
2019-02-24T15:25:15.747Z,22.79
2019-02-24T15:27:42.406Z,22.80
2019-02-24T15:30:09.055Z,22.74
2019-02-24T15:32:35.743Z,22.60
2019-02-24T15:35:02.394Z,22.49
2019-02-24T15:37:29.046Z,22.52
2019-02-24T15:39:55.700Z,22.56
2019-02-24T15:42:22.376Z,22.54
2019-02-24T15:44:49.034Z,22.57
2019-02-24T15:47:15.714Z,22.61
2019-02-24T15:49:42.384Z,22.60
2019-02-24T15:52:10.137Z,22.64
2019-02-24T15:54:35.679Z,22.65
2019-02-24T15:57:02.424Z,22.68
2019-02-24T15:59:29.165Z,22.66
2019-02-24T16:01:55.814Z,22.68
2019-02-24T16:04:22.519Z,22.69
2019-02-24T16:06:49.182Z,22.68
2019-02-24T16:09:17.047Z,22.68
2019-02-24T16:11:42.536Z,22.70
2019-02-24T16:14:09.195Z,22.62
2019-02-24T16:16:35.873Z,22.47
2019-02-24T16:19:02.573Z,22.33
2019-02-24T16:21:29.226Z,22.38
2019-02-24T16:23:55.886Z,22.42
2019-02-24T16:26:22.540Z,22.42
2019-02-24T16:28:49.225Z,22.46
2019-02-24T16:31:15.880Z,22.47
2019-02-24T16:33:42.525Z,22.50
2019-02-24T16:36:09.181Z,22.51
2019-02-24T16:38:35.919Z,22.50
2019-02-24T16:41:02.593Z,22.53
2019-02-24T16:43:29.251Z,22.53
2019-02-24T16:45:55.901Z,22.44
2019-02-24T16:48:22.554Z,22.36
2019-02-24T16:50:49.261Z,22.10
2019-02-24T16:53:19.035Z,21.72
2019-02-24T16:55:45.721Z,21.65
2019-02-24T16:58:12.394Z,21.81
2019-02-24T17:00:39.042Z,21.91
2019-02-24T17:03:05.732Z,22.01
2019-02-24T17:05:32.378Z,22.07
2019-02-24T17:07:59.033Z,22.13
2019-02-24T17:10:25.870Z,22.21
2019-02-24T17:12:52.540Z,22.18
2019-02-24T17:15:19.204Z,22.23
2019-02-24T17:17:47.978Z,22.28
2019-02-24T17:20:12.539Z,22.28
2019-02-24T17:22:39.187Z,22.31
2019-02-24T17:25:05.856Z,22.32
2019-02-24T17:27:32.495Z,22.35
2019-02-24T17:29:59.166Z,22.37
2019-02-24T17:32:25.829Z,22.37
2019-02-24T17:34:52.575Z,22.39
2019-02-24T17:37:20.263Z,22.38
2019-02-24T17:39:45.878Z,22.37
2019-02-24T17:42:12.526Z,22.36
2019-02-24T17:44:39.196Z,22.35
2019-02-24T17:47:05.929Z,22.36
2019-02-24T17:49:32.587Z,22.36
2019-02-24T17:51:59.244Z,22.35
2019-02-24T17:54:25.916Z,22.32
2019-02-24T17:56:52.570Z,22.35
2019-02-24T17:59:19.220Z,22.36
2019-02-24T18:01:45.878Z,22.35
2019-02-24T18:04:12.539Z,22.27
2019-02-24T18:06:39.212Z,22.04
2019-02-24T18:09:05.871Z,22.00
2019-02-24T18:11:32.512Z,22.06
2019-02-24T18:13:59.172Z,22.10
2019-02-24T18:16:25.824Z,22.09
2019-02-24T18:18:52.466Z,22.13
2019-02-24T18:21:19.155Z,22.15
2019-02-24T18:23:45.839Z,22.18
2019-02-24T18:26:12.459Z,22.21
2019-02-24T18:28:39.111Z,22.20
2019-02-24T18:31:05.762Z,22.20
2019-02-24T18:33:32.428Z,22.21
2019-02-24T18:35:59.069Z,22.21
2019-02-24T18:38:25.726Z,22.21
2019-02-24T18:40:52.374Z,22.21
2019-02-24T18:43:19.046Z,22.21
2019-02-24T18:45:45.739Z,22.22
2019-02-24T18:48:12.398Z,22.23
2019-02-24T18:50:39.057Z,22.23
2019-02-24T18:53:06.460Z,22.24
2019-02-24T18:55:32.384Z,22.24
2019-02-24T18:57:59.044Z,22.23
2019-02-24T19:00:25.707Z,22.26
2019-02-24T19:02:52.350Z,22.27
2019-02-24T19:05:19.044Z,22.25
2019-02-24T19:07:45.661Z,22.25
2019-02-24T19:10:12.330Z,22.26
2019-02-24T19:12:38.981Z,22.24
2019-02-24T19:15:05.629Z,22.16
2019-02-24T19:17:32.287Z,21.99
2019-02-24T19:19:58.940Z,21.94
2019-02-24T19:22:25.592Z,21.97
2019-02-24T19:24:52.249Z,22.01
2019-02-24T19:27:18.907Z,22.01
2019-02-24T19:29:45.573Z,22.04
2019-02-24T19:32:12.237Z,22.10
2019-02-24T19:34:38.909Z,22.12
2019-02-24T19:37:05.575Z,22.12
2019-02-24T19:39:32.250Z,22.13
2019-02-24T19:41:58.918Z,22.17
2019-02-24T19:44:25.571Z,22.17
2019-02-24T19:46:52.222Z,22.18
2019-02-24T19:49:18.879Z,22.20
2019-02-24T19:51:45.548Z,22.21
2019-02-24T19:54:12.218Z,22.22
2019-02-24T19:56:38.885Z,22.23
2019-02-24T19:59:05.527Z,22.21
2019-02-24T20:01:32.172Z,22.23
2019-02-24T20:03:58.837Z,22.24
2019-02-24T20:06:25.479Z,22.23
2019-02-24T20:08:52.136Z,22.21
2019-02-24T20:11:18.829Z,22.23
2019-02-24T20:13:45.485Z,22.22
2019-02-24T20:16:12.134Z,22.24
2019-02-24T20:18:38.893Z,22.25
2019-02-24T20:21:05.564Z,22.24
2019-02-24T20:23:32.214Z,22.24
2019-02-24T20:25:58.882Z,22.24
2019-02-24T20:28:25.534Z,22.27
2019-02-24T20:30:52.190Z,22.24
2019-02-24T20:33:18.846Z,22.24
2019-02-24T20:35:45.657Z,22.25
2019-02-24T20:38:12.310Z,22.25
2019-02-24T20:40:38.982Z,22.23
2019-02-24T20:43:05.645Z,22.20
2019-02-24T20:45:32.338Z,22.07
2019-02-24T20:47:58.996Z,21.87
2019-02-24T20:50:25.663Z,21.91
2019-02-24T20:52:52.332Z,21.99
2019-02-24T20:55:18.996Z,21.98
2019-02-24T20:57:45.692Z,22.01
2019-02-24T21:00:12.461Z,22.02
2019-02-24T21:02:39.141Z,22.04
2019-02-24T21:05:05.839Z,22.03
2019-02-24T21:07:32.497Z,22.08
2019-02-24T21:09:59.178Z,22.08
2019-02-24T21:12:25.843Z,22.07
2019-02-24T21:14:52.506Z,22.05
2019-02-24T21:17:19.162Z,22.08
2019-02-24T21:19:45.825Z,22.07
2019-02-24T21:22:12.604Z,22.09
2019-02-24T21:24:39.332Z,22.10
2019-02-24T21:27:05.981Z,22.09
2019-02-24T21:29:32.642Z,22.11
2019-02-24T21:31:59.303Z,22.07
2019-02-24T21:34:25.966Z,22.04
2019-02-24T21:36:52.622Z,22.07
2019-02-24T21:39:19.296Z,22.05
2019-02-24T21:41:47.435Z,22.06
2019-02-24T21:44:12.618Z,22.06
2019-02-24T21:46:39.278Z,22.02
2019-02-24T21:49:05.948Z,21.95
2019-02-24T21:51:32.602Z,21.78
2019-02-24T21:53:59.306Z,21.64
2019-02-24T21:56:25.961Z,21.69
2019-02-24T21:58:52.621Z,21.74
2019-02-24T22:01:19.286Z,21.76
2019-02-24T22:03:46.051Z,21.77
2019-02-24T22:06:12.697Z,21.81
2019-02-24T22:08:39.393Z,21.80
2019-02-24T22:11:06.060Z,21.80
2019-02-24T22:13:32.702Z,21.83
2019-02-24T22:15:59.371Z,21.84
2019-02-24T22:18:26.064Z,21.84
2019-02-24T22:20:52.720Z,21.84
2019-02-24T22:23:19.412Z,21.86
2019-02-24T22:25:46.071Z,21.86
2019-02-24T22:28:12.743Z,21.86
2019-02-24T22:30:39.467Z,21.86
2019-02-24T22:33:06.121Z,21.86
2019-02-24T22:35:32.781Z,21.85
2019-02-24T22:37:59.464Z,21.88
2019-02-24T22:40:26.162Z,21.83
2019-02-24T22:42:52.857Z,21.83
2019-02-24T22:45:19.533Z,21.83
2019-02-24T22:47:46.186Z,21.83
2019-02-24T22:50:12.865Z,21.84
2019-02-24T22:52:39.532Z,21.86
2019-02-24T22:55:06.192Z,21.87
2019-02-24T22:57:32.913Z,21.84
2019-02-24T22:59:59.619Z,21.81
2019-02-24T23:02:26.289Z,21.82
2019-02-24T23:04:52.976Z,21.78
2019-02-24T23:07:19.621Z,21.79
2019-02-24T23:09:46.281Z,21.78
2019-02-24T23:12:12.917Z,21.77
2019-02-24T23:14:39.575Z,21.78
2019-02-24T23:17:06.221Z,21.76
2019-02-24T23:19:32.905Z,21.78
2019-02-24T23:21:59.561Z,21.79
2019-02-24T23:24:26.258Z,21.80
2019-02-24T23:26:52.897Z,21.76
2019-02-24T23:29:19.554Z,21.76
2019-02-24T23:31:46.215Z,21.74
2019-02-24T23:34:12.855Z,21.64
2019-02-24T23:36:39.553Z,21.36
2019-02-24T23:39:06.209Z,21.31
2019-02-24T23:41:32.847Z,21.43
2019-02-24T23:43:59.516Z,21.44
2019-02-24T23:46:26.178Z,21.44
2019-02-24T23:48:52.835Z,21.48
2019-02-24T23:51:19.561Z,21.50
2019-02-24T23:53:46.212Z,21.49
2019-02-24T23:56:12.876Z,21.54
2019-02-24T23:58:39.533Z,21.54
